sensor_id;sensor_type;location;lat;lon;timestamp;temperature;humidity
4840;DHT22;2434;48.486;7.964;2023-10-19T00:02:48;12.20;92.60
4840;DHT22;2434;48.486;7.964;2023-10-19T00:05:17;12.20;92.60
4840;DHT22;2434;48.486;7.964;2023-10-19T00:07:47;12.20;92.60
4840;DHT22;2434;48.486;7.964;2023-10-19T00:10:16;12.20;92.50
4840;DHT22;2434;48.486;7.964;2023-10-19T00:12:46;12.20;92.40
4840;DHT22;2434;48.486;7.964;2023-10-19T00:15:23;12.30;92.10
4840;DHT22;2434;48.486;7.964;2023-10-19T00:17:53;12.20;91.80
4840;DHT22;2434;48.486;7.964;2023-10-19T00:20:21;12.20;91.70
4840;DHT22;2434;48.486;7.964;2023-10-19T00:23:02;12.20;91.70
4840;DHT22;2434;48.486;7.964;2023-10-19T00:25:33;12.20;91.70
4840;DHT22;2434;48.486;7.964;2023-10-19T00:28:03;12.20;91.70
4840;DHT22;2434;48.486;7.964;2023-10-19T00:30:31;12.20;91.80
4840;DHT22;2434;48.486;7.964;2023-10-19T00:33:02;12.20;92.10
4840;DHT22;2434;48.486;7.964;2023-10-19T00:35:33;12.20;92.40
4840;DHT22;2434;48.486;7.964;2023-10-19T00:38:03;12.20;92.70
4840;DHT22;2434;48.486;7.964;2023-10-19T00:40:54;12.20;92.80
4840;DHT22;2434;48.486;7.964;2023-10-19T00:43:28;12.20;93.00
4840;DHT22;2434;48.486;7.964;2023-10-19T00:46:00;12.20;93.00
4840;DHT22;2434;48.486;7.964;2023-10-19T00:48:30;12.20;92.90
4840;DHT22;2434;48.486;7.964;2023-10-19T00:50:59;12.10;93.20
4840;DHT22;2434;48.486;7.964;2023-10-19T00:53:37;12.10;93.40
4840;DHT22;2434;48.486;7.964;2023-10-19T00:56:07;12.10;93.30
4840;DHT22;2434;48.486;7.964;2023-10-19T00:58:38;12.20;93.00
4840;DHT22;2434;48.486;7.964;2023-10-19T01:01:08;12.10;92.80
4840;DHT22;2434;48.486;7.964;2023-10-19T01:03:37;12.10;93.00
4840;DHT22;2434;48.486;7.964;2023-10-19T01:06:06;12.10;93.00
4840;DHT22;2434;48.486;7.964;2023-10-19T01:08:39;12.20;93.00
4840;DHT22;2434;48.486;7.964;2023-10-19T01:11:10;12.10;93.10
4840;DHT22;2434;48.486;7.964;2023-10-19T01:13:43;12.10;93.40
4840;DHT22;2434;48.486;7.964;2023-10-19T01:16:14;12.20;93.70
4840;DHT22;2434;48.486;7.964;2023-10-19T01:18:50;12.10;93.80
4840;DHT22;2434;48.486;7.964;2023-10-19T01:21:22;12.10;94.00
4840;DHT22;2434;48.486;7.964;2023-10-19T01:23:55;12.10;94.20
4840;DHT22;2434;48.486;7.964;2023-10-19T01:26:25;12.20;94.30
4840;DHT22;2434;48.486;7.964;2023-10-19T01:28:53;12.10;94.40
4840;DHT22;2434;48.486;7.964;2023-10-19T01:31:27;12.10;94.50
4840;DHT22;2434;48.486;7.964;2023-10-19T01:34:05;12.10;94.40
4840;DHT22;2434;48.486;7.964;2023-10-19T01:36:36;12.10;94.40
4840;DHT22;2434;48.486;7.964;2023-10-19T01:39:10;12.20;94.40
4840;DHT22;2434;48.486;7.964;2023-10-19T01:41:38;12.20;94.40
4840;DHT22;2434;48.486;7.964;2023-10-19T01:44:08;12.20;94.30
4840;DHT22;2434;48.486;7.964;2023-10-19T01:46:41;12.20;94.20
4840;DHT22;2434;48.486;7.964;2023-10-19T01:49:11;12.20;94.00
4840;DHT22;2434;48.486;7.964;2023-10-19T01:51:38;12.20;93.80
4840;DHT22;2434;48.486;7.964;2023-10-19T01:54:09;12.20;93.80
4840;DHT22;2434;48.486;7.964;2023-10-19T01:56:36;12.20;93.70
4840;DHT22;2434;48.486;7.964;2023-10-19T01:59:06;12.20;93.50
4840;DHT22;2434;48.486;7.964;2023-10-19T02:01:35;12.20;93.40
4840;DHT22;2434;48.486;7.964;2023-10-19T02:04:06;12.20;93.10
4840;DHT22;2434;48.486;7.964;2023-10-19T02:06:42;12.20;92.80
4840;DHT22;2434;48.486;7.964;2023-10-19T02:09:14;12.20;92.60
4840;DHT22;2434;48.486;7.964;2023-10-19T02:11:45;12.30;92.40
4840;DHT22;2434;48.486;7.964;2023-10-19T02:14:16;12.20;91.90
4840;DHT22;2434;48.486;7.964;2023-10-19T02:16:47;12.30;91.50
4840;DHT22;2434;48.486;7.964;2023-10-19T02:19:19;12.20;90.90
4840;DHT22;2434;48.486;7.964;2023-10-19T02:21:47;12.20;90.80
4840;DHT22;2434;48.486;7.964;2023-10-19T02:24:17;12.20;90.80
4840;DHT22;2434;48.486;7.964;2023-10-19T02:26:46;12.20;90.60
4840;DHT22;2434;48.486;7.964;2023-10-19T02:29:14;12.20;90.50
4840;DHT22;2434;48.486;7.964;2023-10-19T02:31:42;12.20;90.30
4840;DHT22;2434;48.486;7.964;2023-10-19T02:34:12;12.20;90.20
4840;DHT22;2434;48.486;7.964;2023-10-19T02:36:43;12.20;89.90
4840;DHT22;2434;48.486;7.964;2023-10-19T02:39:13;12.20;89.70
4840;DHT22;2434;48.486;7.964;2023-10-19T02:41:44;12.20;89.40
4840;DHT22;2434;48.486;7.964;2023-10-19T02:44:13;12.10;89.40
4840;DHT22;2434;48.486;7.964;2023-10-19T02:46:47;12.20;89.30
4840;DHT22;2434;48.486;7.964;2023-10-19T02:49:18;12.20;89.20
4840;DHT22;2434;48.486;7.964;2023-10-19T02:51:48;12.20;89.00
4840;DHT22;2434;48.486;7.964;2023-10-19T02:54:18;12.20;88.70
4840;DHT22;2434;48.486;7.964;2023-10-19T02:56:48;12.20;88.60
4840;DHT22;2434;48.486;7.964;2023-10-19T02:59:19;12.20;88.30
4840;DHT22;2434;48.486;7.964;2023-10-19T03:01:50;12.10;88.00
4840;DHT22;2434;48.486;7.964;2023-10-19T03:04:19;12.10;88.00
4840;DHT22;2434;48.486;7.964;2023-10-19T03:06:48;12.00;88.10
4840;DHT22;2434;48.486;7.964;2023-10-19T03:09:16;12.00;88.50
4840;DHT22;2434;48.486;7.964;2023-10-19T03:11:57;12.00;88.70
4840;DHT22;2434;48.486;7.964;2023-10-19T03:14:30;12.00;88.90
4840;DHT22;2434;48.486;7.964;2023-10-19T03:16:59;12.00;89.10
4840;DHT22;2434;48.486;7.964;2023-10-19T03:19:28;12.00;89.10
4840;DHT22;2434;48.486;7.964;2023-10-19T03:21:55;11.90;89.10
4840;DHT22;2434;48.486;7.964;2023-10-19T03:24:27;12.00;89.10
4840;DHT22;2434;48.486;7.964;2023-10-19T03:27:04;12.00;89.20
4840;DHT22;2434;48.486;7.964;2023-10-19T03:29:39;12.00;89.10
4840;DHT22;2434;48.486;7.964;2023-10-19T03:32:13;11.90;88.90
4840;DHT22;2434;48.486;7.964;2023-10-19T03:34:41;11.90;88.90
4840;DHT22;2434;48.486;7.964;2023-10-19T03:37:13;12.00;88.80
4840;DHT22;2434;48.486;7.964;2023-10-19T03:39:41;12.00;88.70
4840;DHT22;2434;48.486;7.964;2023-10-19T03:42:14;12.00;88.70
4840;DHT22;2434;48.486;7.964;2023-10-19T03:44:42;11.90;88.70
4840;DHT22;2434;48.486;7.964;2023-10-19T03:47:17;11.90;88.70
4840;DHT22;2434;48.486;7.964;2023-10-19T03:49:47;11.90;88.80
4840;DHT22;2434;48.486;7.964;2023-10-19T03:52:17;11.90;88.70
4840;DHT22;2434;48.486;7.964;2023-10-19T03:54:49;12.00;88.60
4840;DHT22;2434;48.486;7.964;2023-10-19T03:57:18;11.90;88.50
4840;DHT22;2434;48.486;7.964;2023-10-19T03:59:52;11.90;88.20
4840;DHT22;2434;48.486;7.964;2023-10-19T04:02:23;11.90;87.90
4840;DHT22;2434;48.486;7.964;2023-10-19T04:04:54;11.90;87.50
4840;DHT22;2434;48.486;7.964;2023-10-19T04:07:23;11.90;87.20
4840;DHT22;2434;48.486;7.964;2023-10-19T04:09:54;11.90;87.00
4840;DHT22;2434;48.486;7.964;2023-10-19T04:12:33;11.80;86.60
4840;DHT22;2434;48.486;7.964;2023-10-19T04:15:03;11.80;86.20
4840;DHT22;2434;48.486;7.964;2023-10-19T04:17:38;11.80;85.90
4840;DHT22;2434;48.486;7.964;2023-10-19T04:20:08;11.80;85.50
4840;DHT22;2434;48.486;7.964;2023-10-19T04:22:53;11.70;85.40
4840;DHT22;2434;48.486;7.964;2023-10-19T04:25:21;11.70;85.50
4840;DHT22;2434;48.486;7.964;2023-10-19T04:27:54;11.70;85.40
4840;DHT22;2434;48.486;7.964;2023-10-19T04:30:24;11.70;85.30
4840;DHT22;2434;48.486;7.964;2023-10-19T04:32:53;11.70;85.20
4840;DHT22;2434;48.486;7.964;2023-10-19T04:35:24;11.70;85.20
4840;DHT22;2434;48.486;7.964;2023-10-19T04:37:57;11.60;84.90
4840;DHT22;2434;48.486;7.964;2023-10-19T04:40:25;11.60;84.90
4840;DHT22;2434;48.486;7.964;2023-10-19T04:42:55;11.60;84.60
4840;DHT22;2434;48.486;7.964;2023-10-19T04:45:23;11.60;84.50
4840;DHT22;2434;48.486;7.964;2023-10-19T04:47:51;11.50;84.40
4840;DHT22;2434;48.486;7.964;2023-10-19T04:50:21;11.50;84.40
4840;DHT22;2434;48.486;7.964;2023-10-19T04:52:50;11.50;84.40
4840;DHT22;2434;48.486;7.964;2023-10-19T04:55:18;11.40;84.30
4840;DHT22;2434;48.486;7.964;2023-10-19T04:57:46;11.40;84.30
4840;DHT22;2434;48.486;7.964;2023-10-19T05:00:17;11.40;84.20
4840;DHT22;2434;48.486;7.964;2023-10-19T05:02:47;11.40;84.30
4840;DHT22;2434;48.486;7.964;2023-10-19T05:05:19;11.40;84.40
4840;DHT22;2434;48.486;7.964;2023-10-19T05:07:47;11.30;84.20
4840;DHT22;2434;48.486;7.964;2023-10-19T05:10:15;11.30;84.30
4840;DHT22;2434;48.486;7.964;2023-10-19T05:12:44;11.30;84.40
4840;DHT22;2434;48.486;7.964;2023-10-19T05:15:12;11.30;84.50
4840;DHT22;2434;48.486;7.964;2023-10-19T05:17:41;11.30;84.40
4840;DHT22;2434;48.486;7.964;2023-10-19T05:20:10;11.30;84.60
4840;DHT22;2434;48.486;7.964;2023-10-19T05:22:38;11.30;84.60
4840;DHT22;2434;48.486;7.964;2023-10-19T05:25:06;11.20;84.50
4840;DHT22;2434;48.486;7.964;2023-10-19T05:27:35;11.20;84.50
4840;DHT22;2434;48.486;7.964;2023-10-19T05:30:06;11.20;84.60
4840;DHT22;2434;48.486;7.964;2023-10-19T05:32:36;11.20;84.70
4840;DHT22;2434;48.486;7.964;2023-10-19T05:35:07;11.20;84.70
4840;DHT22;2434;48.486;7.964;2023-10-19T05:37:40;11.20;84.70
4840;DHT22;2434;48.486;7.964;2023-10-19T05:40:09;11.20;84.80
4840;DHT22;2434;48.486;7.964;2023-10-19T05:42:41;11.20;84.80
4840;DHT22;2434;48.486;7.964;2023-10-19T05:45:09;11.20;84.80
4840;DHT22;2434;48.486;7.964;2023-10-19T05:47:40;11.20;84.90
4840;DHT22;2434;48.486;7.964;2023-10-19T05:50:10;11.20;84.80
4840;DHT22;2434;48.486;7.964;2023-10-19T05:52:41;11.20;85.00
4840;DHT22;2434;48.486;7.964;2023-10-19T05:55:09;11.20;85.00
4840;DHT22;2434;48.486;7.964;2023-10-19T05:57:39;11.20;84.90
4840;DHT22;2434;48.486;7.964;2023-10-19T06:00:09;11.20;85.10
4840;DHT22;2434;48.486;7.964;2023-10-19T06:02:42;11.20;85.10
4840;DHT22;2434;48.486;7.964;2023-10-19T06:05:14;11.20;85.30
4840;DHT22;2434;48.486;7.964;2023-10-19T06:07:44;11.10;85.50
4840;DHT22;2434;48.486;7.964;2023-10-19T06:10:13;11.10;85.70
4840;DHT22;2434;48.486;7.964;2023-10-19T06:12:44;11.10;86.00
4840;DHT22;2434;48.486;7.964;2023-10-19T06:15:13;11.10;86.20
4840;DHT22;2434;48.486;7.964;2023-10-19T06:17:42;11.10;86.50
4840;DHT22;2434;48.486;7.964;2023-10-19T06:20:14;11.10;87.10
4840;DHT22;2434;48.486;7.964;2023-10-19T06:22:54;11.10;87.50
4840;DHT22;2434;48.486;7.964;2023-10-19T06:25:24;11.20;87.80
4840;DHT22;2434;48.486;7.964;2023-10-19T06:27:52;11.20;88.10
4840;DHT22;2434;48.486;7.964;2023-10-19T06:30:24;11.20;88.40
4840;DHT22;2434;48.486;7.964;2023-10-19T06:32:54;11.20;88.80
4840;DHT22;2434;48.486;7.964;2023-10-19T06:35:24;11.30;89.20
4840;DHT22;2434;48.486;7.964;2023-10-19T06:37:53;11.30;89.60
4840;DHT22;2434;48.486;7.964;2023-10-19T06:40:22;11.30;89.90
4840;DHT22;2434;48.486;7.964;2023-10-19T06:42:50;11.30;90.00
4840;DHT22;2434;48.486;7.964;2023-10-19T06:45:18;11.30;90.20
4840;DHT22;2434;48.486;7.964;2023-10-19T06:47:47;11.30;90.70
4840;DHT22;2434;48.486;7.964;2023-10-19T06:50:17;11.30;91.00
4840;DHT22;2434;48.486;7.964;2023-10-19T06:52:48;11.30;91.40
4840;DHT22;2434;48.486;7.964;2023-10-19T06:55:17;11.30;91.70
4840;DHT22;2434;48.486;7.964;2023-10-19T06:57:49;11.30;92.10
4840;DHT22;2434;48.486;7.964;2023-10-19T07:00:18;11.40;92.20
4840;DHT22;2434;48.486;7.964;2023-10-19T07:02:48;11.40;92.30
4840;DHT22;2434;48.486;7.964;2023-10-19T07:05:18;11.40;92.30
4840;DHT22;2434;48.486;7.964;2023-10-19T07:07:51;11.50;92.40
4840;DHT22;2434;48.486;7.964;2023-10-19T07:10:21;11.50;92.90
4840;DHT22;2434;48.486;7.964;2023-10-19T07:12:53;11.50;93.50
4840;DHT22;2434;48.486;7.964;2023-10-19T07:15:22;11.60;93.90
4840;DHT22;2434;48.486;7.964;2023-10-19T07:17:52;11.70;94.40
4840;DHT22;2434;48.486;7.964;2023-10-19T07:20:22;11.70;94.70
4840;DHT22;2434;48.486;7.964;2023-10-19T07:22:54;11.70;95.00
4840;DHT22;2434;48.486;7.964;2023-10-19T07:25:23;11.80;95.20
4840;DHT22;2434;48.486;7.964;2023-10-19T07:27:53;11.80;95.40
4840;DHT22;2434;48.486;7.964;2023-10-19T07:30:21;11.80;95.60
4840;DHT22;2434;48.486;7.964;2023-10-19T07:32:54;11.90;95.90
4840;DHT22;2434;48.486;7.964;2023-10-19T07:35:25;11.90;96.10
4840;DHT22;2434;48.486;7.964;2023-10-19T07:37:55;11.90;96.40
4840;DHT22;2434;48.486;7.964;2023-10-19T07:40:24;12.00;96.60
4840;DHT22;2434;48.486;7.964;2023-10-19T07:42:52;12.10;97.00
4840;DHT22;2434;48.486;7.964;2023-10-19T07:45:21;12.10;97.30
4840;DHT22;2434;48.486;7.964;2023-10-19T07:47:50;12.20;97.60
4840;DHT22;2434;48.486;7.964;2023-10-19T07:50:18;12.20;97.80
4840;DHT22;2434;48.486;7.964;2023-10-19T07:52:47;12.30;98.00
4840;DHT22;2434;48.486;7.964;2023-10-19T07:55:17;12.30;98.00
4840;DHT22;2434;48.486;7.964;2023-10-19T07:57:47;12.30;98.00
4840;DHT22;2434;48.486;7.964;2023-10-19T08:00:18;12.30;98.00
4840;DHT22;2434;48.486;7.964;2023-10-19T08:02:47;12.30;98.10
4840;DHT22;2434;48.486;7.964;2023-10-19T08:05:16;12.40;98.20
4840;DHT22;2434;48.486;7.964;2023-10-19T08:07:45;12.50;98.50
4840;DHT22;2434;48.486;7.964;2023-10-19T08:10:17;12.50;98.70
4840;DHT22;2434;48.486;7.964;2023-10-19T08:12:47;12.60;98.90
4840;DHT22;2434;48.486;7.964;2023-10-19T08:15:17;12.70;99.20
4840;DHT22;2434;48.486;7.964;2023-10-19T08:17:47;12.70;99.30
4840;DHT22;2434;48.486;7.964;2023-10-19T08:20:16;12.70;99.40
4840;DHT22;2434;48.486;7.964;2023-10-19T08:22:51;12.80;99.50
4840;DHT22;2434;48.486;7.964;2023-10-19T08:25:21;12.80;99.50
4840;DHT22;2434;48.486;7.964;2023-10-19T08:27:49;12.90;99.80
4840;DHT22;2434;48.486;7.964;2023-10-19T08:30:20;12.90;99.90
4840;DHT22;2434;48.486;7.964;2023-10-19T08:32:53;13.00;99.90
4840;DHT22;2434;48.486;7.964;2023-10-19T08:35:23;13.10;99.90
4840;DHT22;2434;48.486;7.964;2023-10-19T08:37:53;13.10;99.90
4840;DHT22;2434;48.486;7.964;2023-10-19T08:40:24;13.30;99.90
4840;DHT22;2434;48.486;7.964;2023-10-19T08:42:54;13.30;99.90
4840;DHT22;2434;48.486;7.964;2023-10-19T08:45:22;13.40;99.90
4840;DHT22;2434;48.486;7.964;2023-10-19T08:47:54;13.40;99.90
4840;DHT22;2434;48.486;7.964;2023-10-19T08:50:24;13.50;99.90
4840;DHT22;2434;48.486;7.964;2023-10-19T08:52:54;13.60;99.90
4840;DHT22;2434;48.486;7.964;2023-10-19T08:55:24;13.60;99.90
4840;DHT22;2434;48.486;7.964;2023-10-19T08:58:13;13.70;99.90
4840;DHT22;2434;48.486;7.964;2023-10-19T09:00:45;13.70;99.90
4840;DHT22;2434;48.486;7.964;2023-10-19T09:03:15;13.80;99.90
4840;DHT22;2434;48.486;7.964;2023-10-19T09:05:45;13.80;99.90
4840;DHT22;2434;48.486;7.964;2023-10-19T09:08:15;13.80;99.90
4840;DHT22;2434;48.486;7.964;2023-10-19T09:10:49;13.80;99.90
4840;DHT22;2434;48.486;7.964;2023-10-19T09:13:19;13.80;99.90
4840;DHT22;2434;48.486;7.964;2023-10-19T09:15:49;13.90;99.90
4840;DHT22;2434;48.486;7.964;2023-10-19T09:18:22;14.00;99.90
4840;DHT22;2434;48.486;7.964;2023-10-19T09:20:52;14.00;99.90
4840;DHT22;2434;48.486;7.964;2023-10-19T09:23:21;14.00;99.90
4840;DHT22;2434;48.486;7.964;2023-10-19T09:25:51;14.10;99.90
4840;DHT22;2434;48.486;7.964;2023-10-19T09:28:21;14.20;99.90
4840;DHT22;2434;48.486;7.964;2023-10-19T09:30:51;14.20;99.90
4840;DHT22;2434;48.486;7.964;2023-10-19T09:33:21;14.30;99.90
4840;DHT22;2434;48.486;7.964;2023-10-19T09:35:51;14.30;99.90
4840;DHT22;2434;48.486;7.964;2023-10-19T09:38:23;14.50;99.90
4840;DHT22;2434;48.486;7.964;2023-10-19T09:40:54;14.60;99.90
4840;DHT22;2434;48.486;7.964;2023-10-19T09:43:33;14.60;99.90
4840;DHT22;2434;48.486;7.964;2023-10-19T09:46:06;14.70;99.90
4840;DHT22;2434;48.486;7.964;2023-10-19T09:48:39;14.70;99.90
4840;DHT22;2434;48.486;7.964;2023-10-19T09:51:09;14.80;99.90
4840;DHT22;2434;48.486;7.964;2023-10-19T09:53:43;14.80;99.90
4840;DHT22;2434;48.486;7.964;2023-10-19T09:56:19;14.80;99.90
4840;DHT22;2434;48.486;7.964;2023-10-19T09:58:52;14.90;99.90
4840;DHT22;2434;48.486;7.964;2023-10-19T10:01:22;14.90;99.90
4840;DHT22;2434;48.486;7.964;2023-10-19T10:03:51;14.90;99.90
4840;DHT22;2434;48.486;7.964;2023-10-19T10:06:27;15.00;99.90
4840;DHT22;2434;48.486;7.964;2023-10-19T10:08:58;15.10;99.90
4840;DHT22;2434;48.486;7.964;2023-10-19T10:11:28;15.10;99.90
4840;DHT22;2434;48.486;7.964;2023-10-19T10:13:57;15.20;99.90
4840;DHT22;2434;48.486;7.964;2023-10-19T10:16:26;15.20;99.90
4840;DHT22;2434;48.486;7.964;2023-10-19T10:18:57;15.20;99.90
4840;DHT22;2434;48.486;7.964;2023-10-19T10:21:28;15.20;99.90
4840;DHT22;2434;48.486;7.964;2023-10-19T10:23:59;15.30;99.90
4840;DHT22;2434;48.486;7.964;2023-10-19T10:26:29;15.30;99.90
4840;DHT22;2434;48.486;7.964;2023-10-19T10:29:11;15.30;99.90
4840;DHT22;2434;48.486;7.964;2023-10-19T10:31:42;15.30;99.90
4840;DHT22;2434;48.486;7.964;2023-10-19T10:34:10;15.30;99.90
4840;DHT22;2434;48.486;7.964;2023-10-19T10:36:58;15.30;99.90
4840;DHT22;2434;48.486;7.964;2023-10-19T10:39:30;15.40;99.90
4840;DHT22;2434;48.486;7.964;2023-10-19T10:42:01;15.40;99.90
4840;DHT22;2434;48.486;7.964;2023-10-19T10:44:37;15.40;99.90
4840;DHT22;2434;48.486;7.964;2023-10-19T10:47:07;15.50;99.90
4840;DHT22;2434;48.486;7.964;2023-10-19T10:49:50;15.50;99.90
4840;DHT22;2434;48.486;7.964;2023-10-19T10:52:29;15.50;99.90
4840;DHT22;2434;48.486;7.964;2023-10-19T10:55:06;15.60;99.90
4840;DHT22;2434;48.486;7.964;2023-10-19T10:57:40;15.60;99.70
4840;DHT22;2434;48.486;7.964;2023-10-19T11:00:09;15.70;99.00
4840;DHT22;2434;48.486;7.964;2023-10-19T11:02:43;15.70;98.60
4840;DHT22;2434;48.486;7.964;2023-10-19T11:05:14;15.70;98.50
4840;DHT22;2434;48.486;7.964;2023-10-19T11:08:05;15.70;98.50
4840;DHT22;2434;48.486;7.964;2023-10-19T11:10:34;15.80;98.60
4840;DHT22;2434;48.486;7.964;2023-10-19T11:13:06;15.80;98.70
4840;DHT22;2434;48.486;7.964;2023-10-19T11:15:34;15.90;98.80
4840;DHT22;2434;48.486;7.964;2023-10-19T11:18:04;15.80;98.80
4840;DHT22;2434;48.486;7.964;2023-10-19T11:20:34;15.90;99.10
4840;DHT22;2434;48.486;7.964;2023-10-19T11:23:02;15.90;99.20
4840;DHT22;2434;48.486;7.964;2023-10-19T11:25:31;15.90;99.10
4840;DHT22;2434;48.486;7.964;2023-10-19T11:28:00;15.90;99.10
4840;DHT22;2434;48.486;7.964;2023-10-19T11:30:33;16.00;99.20
4840;DHT22;2434;48.486;7.964;2023-10-19T11:33:02;16.00;99.20
4840;DHT22;2434;48.486;7.964;2023-10-19T11:35:30;16.00;99.00
4840;DHT22;2434;48.486;7.964;2023-10-19T11:38:00;16.00;98.80
4840;DHT22;2434;48.486;7.964;2023-10-19T11:40:29;16.00;98.30
4840;DHT22;2434;48.486;7.964;2023-10-19T11:42:57;16.00;98.00
4840;DHT22;2434;48.486;7.964;2023-10-19T11:45:27;16.10;98.00
4840;DHT22;2434;48.486;7.964;2023-10-19T11:47:57;16.10;97.60
4840;DHT22;2434;48.486;7.964;2023-10-19T11:50:26;16.10;97.50
4840;DHT22;2434;48.486;7.964;2023-10-19T11:52:55;16.10;97.20
4840;DHT22;2434;48.486;7.964;2023-10-19T11:55:24;16.10;96.70
4840;DHT22;2434;48.486;7.964;2023-10-19T11:57:52;16.10;96.70
4840;DHT22;2434;48.486;7.964;2023-10-19T12:00:20;16.10;96.30
4840;DHT22;2434;48.486;7.964;2023-10-19T12:02:51;16.10;96.00
4840;DHT22;2434;48.486;7.964;2023-10-19T12:05:21;16.10;96.20
4840;DHT22;2434;48.486;7.964;2023-10-19T12:07:50;16.10;96.60
4840;DHT22;2434;48.486;7.964;2023-10-19T12:10:19;16.10;96.90
4840;DHT22;2434;48.486;7.964;2023-10-19T12:12:52;16.10;97.10
4840;DHT22;2434;48.486;7.964;2023-10-19T12:15:29;16.10;97.40
4840;DHT22;2434;48.486;7.964;2023-10-19T12:17:57;16.10;97.70
4840;DHT22;2434;48.486;7.964;2023-10-19T12:20:27;16.10;97.70
4840;DHT22;2434;48.486;7.964;2023-10-19T12:22:57;16.10;97.70
4840;DHT22;2434;48.486;7.964;2023-10-19T12:25:27;16.10;97.80
4840;DHT22;2434;48.486;7.964;2023-10-19T12:28:18;16.10;98.00
4840;DHT22;2434;48.486;7.964;2023-10-19T12:30:47;16.10;98.20
4840;DHT22;2434;48.486;7.964;2023-10-19T12:33:16;16.10;98.30
4840;DHT22;2434;48.486;7.964;2023-10-19T12:35:45;16.10;98.50
4840;DHT22;2434;48.486;7.964;2023-10-19T12:38:16;16.10;98.60
4840;DHT22;2434;48.486;7.964;2023-10-19T12:40:45;16.10;98.70
4840;DHT22;2434;48.486;7.964;2023-10-19T12:43:14;16.10;98.90
4840;DHT22;2434;48.486;7.964;2023-10-19T12:45:45;16.10;98.90
4840;DHT22;2434;48.486;7.964;2023-10-19T12:48:17;16.10;98.90
4840;DHT22;2434;48.486;7.964;2023-10-19T12:50:47;16.10;98.90
4840;DHT22;2434;48.486;7.964;2023-10-19T12:53:15;16.10;98.70
4840;DHT22;2434;48.486;7.964;2023-10-19T12:55:43;16.10;98.50
4840;DHT22;2434;48.486;7.964;2023-10-19T12:58:11;16.10;98.30
4840;DHT22;2434;48.486;7.964;2023-10-19T13:00:41;16.00;98.00
4840;DHT22;2434;48.486;7.964;2023-10-19T13:03:11;16.10;97.80
4840;DHT22;2434;48.486;7.964;2023-10-19T13:05:43;16.10;97.70
4840;DHT22;2434;48.486;7.964;2023-10-19T13:08:14;16.10;97.90
4840;DHT22;2434;48.486;7.964;2023-10-19T13:10:44;16.10;98.20
4840;DHT22;2434;48.486;7.964;2023-10-19T13:13:13;16.10;98.50
4840;DHT22;2434;48.486;7.964;2023-10-19T13:15:44;16.10;98.70
4840;DHT22;2434;48.486;7.964;2023-10-19T13:18:14;16.20;98.90
4840;DHT22;2434;48.486;7.964;2023-10-19T13:20:47;16.10;98.80
4840;DHT22;2434;48.486;7.964;2023-10-19T13:23:17;16.10;99.00
4840;DHT22;2434;48.486;7.964;2023-10-19T13:25:49;16.10;99.00
4840;DHT22;2434;48.486;7.964;2023-10-19T13:28:21;16.10;99.10
4840;DHT22;2434;48.486;7.964;2023-10-19T13:30:51;16.20;99.00
4840;DHT22;2434;48.486;7.964;2023-10-19T13:33:20;16.10;99.00
4840;DHT22;2434;48.486;7.964;2023-10-19T13:35:49;16.10;99.10
4840;DHT22;2434;48.486;7.964;2023-10-19T13:38:19;16.10;99.10
4840;DHT22;2434;48.486;7.964;2023-10-19T13:40:47;16.10;98.90
4840;DHT22;2434;48.486;7.964;2023-10-19T13:43:17;16.10;98.70
4840;DHT22;2434;48.486;7.964;2023-10-19T13:45:47;16.10;98.50
4840;DHT22;2434;48.486;7.964;2023-10-19T13:48:15;16.10;98.50
4840;DHT22;2434;48.486;7.964;2023-10-19T13:50:45;16.10;98.60
4840;DHT22;2434;48.486;7.964;2023-10-19T13:53:15;16.20;98.60
4840;DHT22;2434;48.486;7.964;2023-10-19T13:55:45;16.20;98.70
4840;DHT22;2434;48.486;7.964;2023-10-19T13:58:13;16.20;98.90
4840;DHT22;2434;48.486;7.964;2023-10-19T14:00:42;16.20;98.80
4840;DHT22;2434;48.486;7.964;2023-10-19T14:03:12;16.20;98.70
4840;DHT22;2434;48.486;7.964;2023-10-19T14:05:42;16.20;98.60
4840;DHT22;2434;48.486;7.964;2023-10-19T14:08:15;16.20;98.50
4840;DHT22;2434;48.486;7.964;2023-10-19T14:10:45;16.20;98.50
4840;DHT22;2434;48.486;7.964;2023-10-19T14:13:14;16.20;98.70
4840;DHT22;2434;48.486;7.964;2023-10-19T14:15:42;16.20;98.70
4840;DHT22;2434;48.486;7.964;2023-10-19T14:18:10;16.30;99.00
4840;DHT22;2434;48.486;7.964;2023-10-19T14:20:39;16.20;98.90
4840;DHT22;2434;48.486;7.964;2023-10-19T14:23:07;16.20;98.90
4840;DHT22;2434;48.486;7.964;2023-10-19T14:25:38;16.20;98.90
4840;DHT22;2434;48.486;7.964;2023-10-19T14:28:09;16.30;99.10
4840;DHT22;2434;48.486;7.964;2023-10-19T14:30:37;16.30;99.10
4840;DHT22;2434;48.486;7.964;2023-10-19T14:33:05;16.30;99.30
4840;DHT22;2434;48.486;7.964;2023-10-19T14:35:39;16.40;99.70
4840;DHT22;2434;48.486;7.964;2023-10-19T14:38:09;16.40;99.90
4840;DHT22;2434;48.486;7.964;2023-10-19T14:40:41;16.50;99.90
4840;DHT22;2434;48.486;7.964;2023-10-19T14:43:13;16.50;99.90
4840;DHT22;2434;48.486;7.964;2023-10-19T14:45:41;16.60;99.90
4840;DHT22;2434;48.486;7.964;2023-10-19T14:48:10;16.60;99.90
4840;DHT22;2434;48.486;7.964;2023-10-19T14:50:38;16.50;99.90
4840;DHT22;2434;48.486;7.964;2023-10-19T14:53:06;16.50;99.90
4840;DHT22;2434;48.486;7.964;2023-10-19T14:55:35;16.50;99.90
4840;DHT22;2434;48.486;7.964;2023-10-19T14:58:04;16.50;99.90
4840;DHT22;2434;48.486;7.964;2023-10-19T15:00:35;16.50;99.90
4840;DHT22;2434;48.486;7.964;2023-10-19T15:03:04;16.50;99.90
4840;DHT22;2434;48.486;7.964;2023-10-19T15:05:37;16.60;99.90
4840;DHT22;2434;48.486;7.964;2023-10-19T15:08:07;16.60;99.90
4840;DHT22;2434;48.486;7.964;2023-10-19T15:10:41;16.60;99.90
4840;DHT22;2434;48.486;7.964;2023-10-19T15:13:10;16.50;99.90
4840;DHT22;2434;48.486;7.964;2023-10-19T15:15:40;16.60;99.90
4840;DHT22;2434;48.486;7.964;2023-10-19T15:18:08;16.50;99.90
4840;DHT22;2434;48.486;7.964;2023-10-19T15:20:36;16.50;99.90
4840;DHT22;2434;48.486;7.964;2023-10-19T15:23:04;16.50;99.90
4840;DHT22;2434;48.486;7.964;2023-10-19T15:25:33;16.50;99.90
4840;DHT22;2434;48.486;7.964;2023-10-19T15:28:03;16.40;99.80
4840;DHT22;2434;48.486;7.964;2023-10-19T15:30:31;16.40;99.40
4840;DHT22;2434;48.486;7.964;2023-10-19T15:33:01;16.40;99.00
4840;DHT22;2434;48.486;7.964;2023-10-19T15:35:29;16.40;98.70
4840;DHT22;2434;48.486;7.964;2023-10-19T15:37:57;16.40;98.30
4840;DHT22;2434;48.486;7.964;2023-10-19T15:40:25;16.40;98.20
4840;DHT22;2434;48.486;7.964;2023-10-19T15:42:54;16.40;98.10
4840;DHT22;2434;48.486;7.964;2023-10-19T15:45:22;16.40;98.00
4840;DHT22;2434;48.486;7.964;2023-10-19T15:47:52;16.40;98.00
4840;DHT22;2434;48.486;7.964;2023-10-19T15:50:22;16.40;97.80
4840;DHT22;2434;48.486;7.964;2023-10-19T15:52:50;16.30;97.70
4840;DHT22;2434;48.486;7.964;2023-10-19T15:55:19;16.30;97.70
4840;DHT22;2434;48.486;7.964;2023-10-19T15:57:49;16.30;97.70
4840;DHT22;2434;48.486;7.964;2023-10-19T16:00:18;16.30;97.80
4840;DHT22;2434;48.486;7.964;2023-10-19T16:02:47;16.30;97.80
4840;DHT22;2434;48.486;7.964;2023-10-19T16:05:16;16.30;97.80
4840;DHT22;2434;48.486;7.964;2023-10-19T16:07:46;16.30;97.80
4840;DHT22;2434;48.486;7.964;2023-10-19T16:10:14;16.20;97.60
4840;DHT22;2434;48.486;7.964;2023-10-19T16:12:43;16.30;97.50
4840;DHT22;2434;48.486;7.964;2023-10-19T16:15:12;16.30;97.30
4840;DHT22;2434;48.486;7.964;2023-10-19T16:17:40;16.20;97.00
4840;DHT22;2434;48.486;7.964;2023-10-19T16:20:11;16.30;96.90
4840;DHT22;2434;48.486;7.964;2023-10-19T16:22:40;16.30;96.70
4840;DHT22;2434;48.486;7.964;2023-10-19T16:25:11;16.20;96.60